createdAt,value
2018-12-29T00:00:47.586Z,16.22
2018-12-29T00:01:49.522Z,16.22
2018-12-29T00:02:51.462Z,16.23
2018-12-29T00:03:53.493Z,16.23
2018-12-29T00:04:55.473Z,16.22
2018-12-29T00:05:57.420Z,16.23
2018-12-29T00:06:59.357Z,16.22
2018-12-29T00:08:01.302Z,16.23
2018-12-29T00:09:04.511Z,16.23
2018-12-29T00:10:06.485Z,16.21
2018-12-29T00:11:08.423Z,16.22
2018-12-29T00:12:12.174Z,16.22
2018-12-29T00:13:14.277Z,16.22
2018-12-29T00:14:16.309Z,16.22
2018-12-29T00:15:18.373Z,16.23
2018-12-29T00:16:20.400Z,16.22
2018-12-29T00:17:22.482Z,16.22
2018-12-29T00:18:24.490Z,16.21
2018-12-29T00:19:26.496Z,16.20
2018-12-29T00:20:28.522Z,16.22
2018-12-29T00:21:30.551Z,16.22
2018-12-29T00:22:32.559Z,16.22
2018-12-29T00:23:34.500Z,16.21
2018-12-29T00:24:36.456Z,16.21
2018-12-29T00:25:38.431Z,16.20
2018-12-29T00:26:40.386Z,16.21
2018-12-29T00:27:42.328Z,16.21
2018-12-29T00:28:44.278Z,16.21
2018-12-29T00:29:46.236Z,16.23
2018-12-29T00:30:48.204Z,16.22
2018-12-29T00:31:50.166Z,16.22
2018-12-29T00:32:52.190Z,16.22
2018-12-29T00:33:54.312Z,16.22
2018-12-29T00:34:56.275Z,16.22
2018-12-29T00:35:58.238Z,16.23
2018-12-29T00:37:00.183Z,16.22
2018-12-29T00:38:02.108Z,16.21
2018-12-29T00:39:05.742Z,16.21
2018-12-29T00:40:07.757Z,16.23
2018-12-29T00:41:09.722Z,16.21
2018-12-29T00:42:11.657Z,16.22
2018-12-29T00:43:13.630Z,16.22
2018-12-29T00:44:15.640Z,16.21
2018-12-29T00:45:17.591Z,16.22
2018-12-29T00:46:19.564Z,16.23
2018-12-29T00:47:21.570Z,16.23
2018-12-29T00:48:26.746Z,16.21
2018-12-29T00:49:28.682Z,16.21
2018-12-29T00:50:30.626Z,16.22
2018-12-29T00:51:35.607Z,16.22
2018-12-29T00:52:37.554Z,16.22
2018-12-29T00:53:42.740Z,16.21
2018-12-29T00:54:44.678Z,16.21
2018-12-29T00:55:46.642Z,16.21
2018-12-29T00:56:48.613Z,16.22
2018-12-29T00:57:50.571Z,16.22
2018-12-29T00:58:52.500Z,16.22
2018-12-29T00:59:54.447Z,16.23
2018-12-29T01:00:56.455Z,16.23
2018-12-29T01:01:58.433Z,16.22
2018-12-29T01:03:00.360Z,16.22
2018-12-29T01:04:02.322Z,16.22
2018-12-29T01:05:04.283Z,16.23
2018-12-29T01:06:06.285Z,16.22
2018-12-29T01:07:08.514Z,16.22
2018-12-29T01:08:10.504Z,16.24
2018-12-29T01:09:12.451Z,16.22
2018-12-29T01:10:14.399Z,16.23
2018-12-29T01:11:16.408Z,16.22
2018-12-29T01:12:18.388Z,16.22
2018-12-29T01:13:20.349Z,16.24
2018-12-29T01:14:22.298Z,16.23
2018-12-29T01:15:24.227Z,16.22
2018-12-29T01:16:26.161Z,16.23
2018-12-29T01:17:29.523Z,16.23
2018-12-29T01:18:31.462Z,16.23
2018-12-29T01:19:33.429Z,16.22
2018-12-29T01:20:35.359Z,16.22
2018-12-29T01:21:37.311Z,16.24
2018-12-29T01:22:39.366Z,16.24
2018-12-29T01:23:41.381Z,16.24
2018-12-29T01:24:43.521Z,16.25
2018-12-29T01:25:45.533Z,16.25
2018-12-29T01:26:47.469Z,16.24
2018-12-29T01:27:49.514Z,16.23
2018-12-29T01:28:51.514Z,16.24
2018-12-29T01:29:53.453Z,16.24
2018-12-29T01:30:55.492Z,16.24
2018-12-29T01:31:57.441Z,16.23
2018-12-29T01:32:59.421Z,16.24
2018-12-29T01:34:01.373Z,16.24
2018-12-29T01:35:03.410Z,16.25
2018-12-29T01:36:05.433Z,16.25
2018-12-29T01:37:07.457Z,16.23
2018-12-29T01:38:09.446Z,16.23
2018-12-29T01:39:11.463Z,16.22
2018-12-29T01:40:13.391Z,16.23
2018-12-29T01:41:15.391Z,16.23
2018-12-29T01:42:17.373Z,16.23
2018-12-29T01:43:19.375Z,16.24
2018-12-29T01:44:21.622Z,16.24
2018-12-29T01:45:23.670Z,16.23
2018-12-29T01:46:25.607Z,16.24
2018-12-29T01:47:27.549Z,16.24
2018-12-29T01:48:29.530Z,16.22
2018-12-29T01:49:31.476Z,16.23
2018-12-29T01:50:33.875Z,16.23
2018-12-29T01:51:35.877Z,16.23
2018-12-29T01:52:37.888Z,16.23
2018-12-29T01:53:39.863Z,16.23
2018-12-29T01:54:41.800Z,16.24
2018-12-29T01:55:43.761Z,16.21
2018-12-29T01:56:45.711Z,16.22
2018-12-29T01:57:47.713Z,16.23
2018-12-29T01:58:49.691Z,16.22
2018-12-29T01:59:51.637Z,16.24
2018-12-29T02:00:53.648Z,16.23
2018-12-29T02:01:58.849Z,16.22
2018-12-29T02:03:00.876Z,16.22
2018-12-29T02:04:02.844Z,16.21
2018-12-29T02:05:04.965Z,16.21
2018-12-29T02:06:06.962Z,16.20
2018-12-29T02:07:08.904Z,16.19
2018-12-29T02:08:10.855Z,16.21
2018-12-29T02:09:12.886Z,16.19
2018-12-29T02:10:15.153Z,16.21
2018-12-29T02:11:17.121Z,16.21
2018-12-29T02:12:19.134Z,16.21
2018-12-29T02:13:21.074Z,16.19
2018-12-29T02:14:23.018Z,16.21
2018-12-29T02:15:25.014Z,16.21
2018-12-29T02:16:27.015Z,16.19
2018-12-29T02:17:29.032Z,16.22
2018-12-29T02:18:31.042Z,16.21
2018-12-29T02:19:34.264Z,16.19
2018-12-29T02:20:36.222Z,16.21
2018-12-29T02:21:38.170Z,16.19
2018-12-29T02:22:40.100Z,16.18
2018-12-29T02:23:42.038Z,16.19
2018-12-29T02:24:44.020Z,16.20
2018-12-29T02:25:45.976Z,16.19
2018-12-29T02:26:47.940Z,16.19
2018-12-29T02:27:49.892Z,16.19
2018-12-29T02:28:51.845Z,16.19
2018-12-29T02:29:53.852Z,16.19
2018-12-29T02:30:55.808Z,16.21
2018-12-29T02:31:57.746Z,16.20
2018-12-29T02:32:59.704Z,16.19
2018-12-29T02:34:01.835Z,16.19
2018-12-29T02:35:03.914Z,16.19
2018-12-29T02:36:05.995Z,16.18
2018-12-29T02:37:07.965Z,16.18
2018-12-29T02:38:09.984Z,16.19
2018-12-29T02:39:11.920Z,16.19
2018-12-29T02:40:13.918Z,16.19
2018-12-29T02:41:15.852Z,16.19
2018-12-29T02:42:17.853Z,16.19
2018-12-29T02:43:19.795Z,16.17
2018-12-29T02:44:21.745Z,16.18
2018-12-29T02:45:33.107Z,16.18
2018-12-29T02:46:29.964Z,16.19
2018-12-29T02:47:31.965Z,16.17
2018-12-29T02:48:33.911Z,16.18
2018-12-29T02:49:35.880Z,16.18
2018-12-29T02:50:39.908Z,16.17
2018-12-29T02:51:41.615Z,16.18
2018-12-29T02:52:45.380Z,16.17
2018-12-29T02:53:47.395Z,16.18
2018-12-29T02:54:49.383Z,16.18
2018-12-29T02:55:51.381Z,16.18
2018-12-29T02:56:53.336Z,16.19
2018-12-29T02:57:55.396Z,16.18
2018-12-29T02:58:57.366Z,16.18
2018-12-29T02:59:59.316Z,16.17
2018-12-29T03:01:01.284Z,16.19
2018-12-29T03:02:03.331Z,16.18
2018-12-29T03:03:05.272Z,16.18
2018-12-29T03:04:07.227Z,16.18
2018-12-29T03:05:09.193Z,16.17
2018-12-29T03:06:11.164Z,16.17
2018-12-29T03:07:13.170Z,16.18
2018-12-29T03:08:15.190Z,16.17
2018-12-29T03:09:17.140Z,16.16
2018-12-29T03:10:19.107Z,16.16
2018-12-29T03:11:21.099Z,16.17
2018-12-29T03:12:23.038Z,16.17
2018-12-29T03:13:24.979Z,16.18
2018-12-29T03:14:27.006Z,16.16
2018-12-29T03:15:29.012Z,16.17
2018-12-29T03:16:30.968Z,16.17
2018-12-29T03:17:32.912Z,16.16
2018-12-29T03:18:34.930Z,16.17
2018-12-29T03:19:36.850Z,16.16
2018-12-29T03:20:38.827Z,16.16
2018-12-29T03:21:40.867Z,16.17
2018-12-29T03:22:42.906Z,16.17
2018-12-29T03:23:44.946Z,16.18
2018-12-29T03:24:46.878Z,16.17
2018-12-29T03:25:48.814Z,16.16
2018-12-29T03:26:50.796Z,16.17
2018-12-29T03:27:52.760Z,16.16
2018-12-29T03:28:54.741Z,16.16
2018-12-29T03:29:56.762Z,16.16
2018-12-29T03:30:59.243Z,16.16
2018-12-29T03:32:01.312Z,16.18
2018-12-29T03:33:03.372Z,16.17
2018-12-29T03:34:05.392Z,16.17
2018-12-29T03:35:07.428Z,16.16
2018-12-29T03:36:09.397Z,16.15
2018-12-29T03:37:11.429Z,16.17
2018-12-29T03:38:13.472Z,16.17
2018-12-29T03:39:20.477Z,16.16
2018-12-29T03:40:22.474Z,16.16
2018-12-29T03:41:24.421Z,16.15
2018-12-29T03:42:30.919Z,16.16
2018-12-29T03:43:30.139Z,16.15
2018-12-29T03:44:32.339Z,16.16
2018-12-29T03:45:34.271Z,16.17
2018-12-29T03:46:36.218Z,16.16
2018-12-29T03:47:38.214Z,16.16
2018-12-29T03:48:40.153Z,16.17
2018-12-29T03:49:42.202Z,16.16
2018-12-29T03:50:44.203Z,16.15
2018-12-29T03:51:46.257Z,16.16
2018-12-29T03:52:48.259Z,16.15
2018-12-29T03:53:50.269Z,16.16
2018-12-29T03:54:52.217Z,16.16
2018-12-29T03:55:54.174Z,16.16
2018-12-29T03:56:56.189Z,16.17
2018-12-29T03:57:58.171Z,16.15
2018-12-29T03:59:02.341Z,16.16
2018-12-29T04:00:04.285Z,16.16
2018-12-29T04:01:06.295Z,16.16
2018-12-29T04:02:08.303Z,16.16
2018-12-29T04:03:10.789Z,16.16
2018-12-29T04:04:12.814Z,16.16
2018-12-29T04:05:14.763Z,16.15
2018-12-29T04:06:16.725Z,16.16
2018-12-29T04:07:18.743Z,16.15
2018-12-29T04:08:20.709Z,16.14
2018-12-29T04:09:22.733Z,16.15
2018-12-29T04:10:24.684Z,16.15
2018-12-29T04:11:26.684Z,16.15
2018-12-29T04:12:28.650Z,16.15
2018-12-29T04:13:30.623Z,16.16
2018-12-29T04:14:32.593Z,16.17
2018-12-29T04:15:34.592Z,16.17
2018-12-29T04:16:36.630Z,16.17
2018-12-29T04:17:38.621Z,16.16
2018-12-29T04:18:40.599Z,16.16
2018-12-29T04:19:42.542Z,16.15
2018-12-29T04:20:44.581Z,16.16
2018-12-29T04:21:46.529Z,16.15
2018-12-29T04:22:48.508Z,16.16
2018-12-29T04:23:50.561Z,16.16
2018-12-29T04:24:52.573Z,16.16
2018-12-29T04:25:54.506Z,16.15
2018-12-29T04:26:56.466Z,16.16
2018-12-29T04:27:58.409Z,16.17
2018-12-29T04:29:00.431Z,16.16
2018-12-29T04:30:02.376Z,16.15
2018-12-29T04:31:04.339Z,16.16
2018-12-29T04:32:06.366Z,16.16
2018-12-29T04:33:08.381Z,16.16
2018-12-29T04:34:10.393Z,16.15
2018-12-29T04:35:12.329Z,16.16
2018-12-29T04:36:14.288Z,16.16
2018-12-29T04:37:16.240Z,16.16
2018-12-29T04:38:18.263Z,16.16
2018-12-29T04:39:20.305Z,16.15
2018-12-29T04:40:22.324Z,16.16
2018-12-29T04:41:24.294Z,16.15
2018-12-29T04:42:26.237Z,16.16
2018-12-29T04:43:28.289Z,16.15
2018-12-29T04:44:30.278Z,16.16
2018-12-29T04:45:32.234Z,16.14
2018-12-29T04:46:34.292Z,16.15
2018-12-29T04:47:36.324Z,16.15
2018-12-29T04:48:38.267Z,16.15
2018-12-29T04:49:40.342Z,16.15
2018-12-29T04:50:42.320Z,16.15
2018-12-29T04:51:44.269Z,16.14
2018-12-29T04:52:46.220Z,16.15
2018-12-29T04:53:48.158Z,16.14
2018-12-29T04:54:50.146Z,16.14
2018-12-29T04:55:52.172Z,16.15
2018-12-29T04:56:56.352Z,16.14
2018-12-29T04:57:58.406Z,16.14
2018-12-29T04:59:00.346Z,16.14
2018-12-29T05:00:02.387Z,16.14
2018-12-29T05:01:04.412Z,16.14
2018-12-29T05:02:06.431Z,16.15
2018-12-29T05:03:11.392Z,16.15
2018-12-29T05:04:13.335Z,16.14
2018-12-29T05:05:15.380Z,16.14
2018-12-29T05:06:17.331Z,16.13
2018-12-29T05:07:19.348Z,16.14
2018-12-29T05:08:21.286Z,16.14
2018-12-29T05:09:23.230Z,16.13
2018-12-29T05:10:25.372Z,16.14
2018-12-29T05:11:27.382Z,16.14
2018-12-29T05:12:29.336Z,16.14
2018-12-29T05:13:31.248Z,16.14
2018-12-29T05:14:33.190Z,16.14
2018-12-29T05:15:35.126Z,16.14
2018-12-29T05:16:37.062Z,16.14
2018-12-29T05:17:40.292Z,16.13
2018-12-29T05:18:42.228Z,16.13
2018-12-29T05:19:44.182Z,16.12
2018-12-29T05:20:46.156Z,16.13
2018-12-29T05:21:48.095Z,16.13
2018-12-29T05:22:50.038Z,16.13
2018-12-29T05:23:52.052Z,16.13
2018-12-29T05:24:54.072Z,16.13
2018-12-29T05:25:56.036Z,16.13
2018-12-29T05:26:57.991Z,16.14
2018-12-29T05:27:59.999Z,16.14
2018-12-29T05:29:01.940Z,16.14
2018-12-29T05:30:03.953Z,16.15
2018-12-29T05:31:05.932Z,16.15
2018-12-29T05:32:08.454Z,16.14
2018-12-29T05:33:10.391Z,16.14
2018-12-29T05:34:12.408Z,16.14
2018-12-29T05:35:15.282Z,16.14
2018-12-29T05:36:17.500Z,16.14
2018-12-29T05:37:19.446Z,16.14
2018-12-29T05:38:21.396Z,16.15
2018-12-29T05:39:23.331Z,16.15
2018-12-29T05:40:25.266Z,16.15
2018-12-29T05:41:27.222Z,16.16
2018-12-29T05:42:29.162Z,16.17
2018-12-29T05:43:31.097Z,16.18
2018-12-29T05:44:33.043Z,16.18
2018-12-29T05:45:34.985Z,16.22
2018-12-29T05:46:36.964Z,16.23
2018-12-29T05:47:38.919Z,16.22
2018-12-29T05:48:40.964Z,16.24
2018-12-29T05:49:43.063Z,16.24
2018-12-29T05:50:45.113Z,16.26
2018-12-29T05:51:47.089Z,16.27
2018-12-29T05:52:51.828Z,16.28
2018-12-29T05:53:53.845Z,16.29
2018-12-29T05:54:55.797Z,16.29
2018-12-29T05:55:57.737Z,16.30
2018-12-29T05:56:59.701Z,16.30
2018-12-29T05:58:01.635Z,16.31
2018-12-29T05:59:03.582Z,16.32
2018-12-29T06:00:05.613Z,16.32
2018-12-29T06:01:07.575Z,16.33
2018-12-29T06:02:09.554Z,16.33
2018-12-29T06:03:11.481Z,16.33
2018-12-29T06:04:13.453Z,16.33
2018-12-29T06:05:15.396Z,16.32
2018-12-29T06:06:17.334Z,16.32
2018-12-29T06:07:19.377Z,16.31
2018-12-29T06:08:21.401Z,16.30
2018-12-29T06:09:23.345Z,16.29
2018-12-29T06:10:25.357Z,16.29
2018-12-29T06:11:27.373Z,16.29
2018-12-29T06:12:29.341Z,16.30
2018-12-29T06:13:31.285Z,16.29
2018-12-29T06:14:33.236Z,16.26
2018-12-29T06:15:35.237Z,16.26
2018-12-29T06:16:37.199Z,16.26
2018-12-29T06:17:39.161Z,16.25
2018-12-29T06:18:41.105Z,16.24
2018-12-29T06:19:43.052Z,16.24
2018-12-29T06:20:48.357Z,16.24
2018-12-29T06:21:50.294Z,16.21
2018-12-29T06:22:52.261Z,16.22
2018-12-29T06:23:54.219Z,16.21
2018-12-29T06:24:56.229Z,16.21
2018-12-29T06:25:58.157Z,16.21
2018-12-29T06:27:00.162Z,16.18
2018-12-29T06:28:02.128Z,16.19
2018-12-29T06:29:04.096Z,16.18
2018-12-29T06:30:06.096Z,16.17
2018-12-29T06:31:08.031Z,16.18
2018-12-29T06:32:09.963Z,16.16
2018-12-29T06:33:11.930Z,16.17
2018-12-29T06:34:14.799Z,16.17
2018-12-29T06:35:17.856Z,16.15
2018-12-29T06:36:19.905Z,16.15
2018-12-29T06:37:21.835Z,16.15
2018-12-29T06:38:23.815Z,16.13
2018-12-29T06:39:25.758Z,16.13
2018-12-29T06:40:27.711Z,16.15
2018-12-29T06:41:29.652Z,16.14
2018-12-29T06:42:31.596Z,16.14
2018-12-29T06:43:33.549Z,16.13
2018-12-29T06:44:35.487Z,16.12
2018-12-29T06:45:37.427Z,16.11
2018-12-29T06:46:39.359Z,16.10
2018-12-29T06:47:41.303Z,16.10
2018-12-29T06:48:43.345Z,16.09
2018-12-29T06:49:45.311Z,16.10
2018-12-29T06:50:47.237Z,16.10
2018-12-29T06:51:49.174Z,16.09
2018-12-29T06:52:53.311Z,16.08
2018-12-29T06:53:55.371Z,16.09
2018-12-29T06:54:57.309Z,16.08
2018-12-29T06:55:59.265Z,16.08
2018-12-29T06:57:01.235Z,16.06
2018-12-29T06:58:03.331Z,16.06
2018-12-29T06:59:05.367Z,16.05
2018-12-29T07:00:07.306Z,16.05
2018-12-29T07:01:09.301Z,16.04
2018-12-29T07:02:11.259Z,16.05
2018-12-29T07:03:13.194Z,16.04
2018-12-29T07:04:16.033Z,16.03
2018-12-29T07:05:18.078Z,16.04
2018-12-29T07:06:20.090Z,16.04
2018-12-29T07:07:22.031Z,16.02
2018-12-29T07:08:24.474Z,16.02
2018-12-29T07:09:26.463Z,16.00
2018-12-29T07:10:28.531Z,16.02
2018-12-29T07:11:30.550Z,16.02
2018-12-29T07:12:32.506Z,16.01
2018-12-29T07:13:37.930Z,16.00
2018-12-29T07:14:39.978Z,16.00
2018-12-29T07:15:42.258Z,16.00
2018-12-29T07:16:44.270Z,15.99
2018-12-29T07:17:46.221Z,15.99
2018-12-29T07:18:48.238Z,15.99
2018-12-29T07:19:50.208Z,16.01
2018-12-29T07:20:52.150Z,15.99
2018-12-29T07:21:54.098Z,15.99
2018-12-29T07:22:56.089Z,15.97
2018-12-29T07:23:58.087Z,15.97
2018-12-29T07:25:00.167Z,15.97
2018-12-29T07:26:02.167Z,15.96
2018-12-29T07:27:04.098Z,15.96
2018-12-29T07:28:06.042Z,15.96
2018-12-29T07:29:07.969Z,15.95
2018-12-29T07:30:09.935Z,15.96
2018-12-29T07:31:11.865Z,15.95
2018-12-29T07:32:13.820Z,15.95
2018-12-29T07:33:15.769Z,15.95
2018-12-29T07:34:17.785Z,15.94
2018-12-29T07:35:19.764Z,15.93
2018-12-29T07:36:21.714Z,15.94
2018-12-29T07:37:23.712Z,15.94
2018-12-29T07:38:25.666Z,15.94
2018-12-29T07:39:27.690Z,15.92
2018-12-29T07:40:30.685Z,15.94
2018-12-29T07:41:32.623Z,15.92
2018-12-29T07:42:34.556Z,15.93
2018-12-29T07:43:36.502Z,15.93
2018-12-29T07:44:38.468Z,15.94
2018-12-29T07:45:43.190Z,15.93
2018-12-29T07:46:49.543Z,15.91
2018-12-29T07:47:48.796Z,15.91
2018-12-29T07:48:50.750Z,15.91
2018-12-29T07:49:52.678Z,15.91
2018-12-29T07:50:54.635Z,15.90
2018-12-29T07:51:56.591Z,15.89
2018-12-29T07:52:58.538Z,15.89
2018-12-29T07:54:00.480Z,15.90
2018-12-29T07:55:02.427Z,15.89
2018-12-29T07:56:04.476Z,15.89
2018-12-29T07:57:06.484Z,15.88
2018-12-29T07:58:08.432Z,15.89
2018-12-29T07:59:10.398Z,15.89
2018-12-29T08:00:12.341Z,15.89
2018-12-29T08:01:14.302Z,15.87
2018-12-29T08:02:16.252Z,15.88
2018-12-29T08:03:18.194Z,15.88
2018-12-29T08:04:20.134Z,15.87
2018-12-29T08:05:22.079Z,15.87
2018-12-29T08:06:24.123Z,15.86
2018-12-29T08:07:26.059Z,15.86
2018-12-29T08:08:28.002Z,15.86
2018-12-29T08:09:29.939Z,15.87
2018-12-29T08:10:31.887Z,15.86
2018-12-29T08:11:33.888Z,15.87
2018-12-29T08:12:35.832Z,15.86
2018-12-29T08:13:37.792Z,15.85
2018-12-29T08:14:40.073Z,15.86
2018-12-29T08:15:42.019Z,15.86
2018-12-29T08:16:44.017Z,15.87
2018-12-29T08:17:45.962Z,15.89
2018-12-29T08:18:49.289Z,15.91
2018-12-29T08:19:51.215Z,15.93
2018-12-29T08:20:53.151Z,15.95
2018-12-29T08:21:55.130Z,15.98
2018-12-29T08:22:57.069Z,16.02
2018-12-29T08:23:59.073Z,16.06
2018-12-29T08:25:01.015Z,16.08
2018-12-29T08:26:02.961Z,16.11
2018-12-29T08:27:04.921Z,16.13
2018-12-29T08:28:06.874Z,16.16
2018-12-29T08:29:08.884Z,16.18
2018-12-29T08:30:10.899Z,16.21
2018-12-29T08:31:12.918Z,16.24
2018-12-29T08:32:14.962Z,16.24
2018-12-29T08:33:16.910Z,16.26
2018-12-29T08:34:18.844Z,16.28
2018-12-29T08:35:20.780Z,16.29
2018-12-29T08:36:22.746Z,16.30
2018-12-29T08:37:24.799Z,16.30
2018-12-29T08:38:26.800Z,16.32
2018-12-29T08:39:28.763Z,16.34
2018-12-29T08:40:30.772Z,16.34
2018-12-29T08:41:32.727Z,16.35
2018-12-29T08:42:34.702Z,16.35
2018-12-29T08:43:36.632Z,16.35
2018-12-29T08:44:38.610Z,16.35
2018-12-29T08:45:40.593Z,16.35
2018-12-29T08:46:42.594Z,16.35
2018-12-29T08:47:44.575Z,16.36
2018-12-29T08:48:46.573Z,16.34
2018-12-29T08:49:48.512Z,16.33
2018-12-29T08:50:50.454Z,16.33
2018-12-29T08:51:52.392Z,16.32
2018-12-29T08:52:54.354Z,16.31
2018-12-29T08:53:56.297Z,16.31
2018-12-29T08:54:58.238Z,16.29
2018-12-29T08:56:00.183Z,16.29
2018-12-29T08:57:02.140Z,16.27
2018-12-29T08:58:04.112Z,16.27
2018-12-29T08:59:08.010Z,16.26
2018-12-29T09:00:09.703Z,16.26
2018-12-29T09:01:11.647Z,16.25
2018-12-29T09:02:13.614Z,16.24
2018-12-29T09:03:15.647Z,16.24
2018-12-29T09:04:17.602Z,16.23
2018-12-29T09:05:19.538Z,16.22
2018-12-29T09:06:21.517Z,16.21
2018-12-29T09:07:23.528Z,16.21
2018-12-29T09:08:26.762Z,16.19
2018-12-29T09:09:28.728Z,16.19
2018-12-29T09:10:30.742Z,16.18
2018-12-29T09:11:32.762Z,16.19
2018-12-29T09:12:34.765Z,16.18
2018-12-29T09:13:36.733Z,16.16
2018-12-29T09:14:38.667Z,16.15
2018-12-29T09:15:41.183Z,16.15
2018-12-29T09:16:43.379Z,16.15
2018-12-29T09:17:45.390Z,16.14
2018-12-29T09:18:49.832Z,16.13
2018-12-29T09:19:51.026Z,16.12
2018-12-29T09:20:53.054Z,16.12
2018-12-29T09:21:54.997Z,16.12
2018-12-29T09:22:57.020Z,16.11
2018-12-29T09:23:58.998Z,16.10
2018-12-29T09:25:00.970Z,16.10
2018-12-29T09:26:02.916Z,16.10
2018-12-29T09:27:04.942Z,16.10
2018-12-29T09:28:06.889Z,16.09
2018-12-29T09:29:08.949Z,16.10
2018-12-29T09:30:12.554Z,16.09
2018-12-29T09:31:14.564Z,16.09
2018-12-29T09:32:16.522Z,16.08
2018-12-29T09:33:18.459Z,16.07
2018-12-29T09:34:22.542Z,16.07
2018-12-29T09:35:24.117Z,16.06
2018-12-29T09:36:26.121Z,16.06
2018-12-29T09:37:28.132Z,16.07
2018-12-29T09:38:30.070Z,16.06
2018-12-29T09:39:32.039Z,16.05
2018-12-29T09:40:34.107Z,16.05
2018-12-29T09:41:36.118Z,16.04
2018-12-29T09:42:38.060Z,16.04
2018-12-29T09:43:40.070Z,16.03
2018-12-29T09:44:42.065Z,16.03
2018-12-29T09:45:44.077Z,16.03
2018-12-29T09:46:46.082Z,16.03
2018-12-29T09:47:48.031Z,16.03
2018-12-29T09:48:49.971Z,16.04
2018-12-29T09:49:51.933Z,16.03
2018-12-29T09:50:53.875Z,16.03
2018-12-29T09:51:57.258Z,16.02
2018-12-29T09:52:59.299Z,16.03
2018-12-29T09:54:01.320Z,16.02
2018-12-29T09:55:03.273Z,16.01
2018-12-29T09:56:05.244Z,16.03
2018-12-29T09:57:07.184Z,16.00
2018-12-29T09:58:09.130Z,16.01
2018-12-29T09:59:11.074Z,16.01
2018-12-29T10:00:13.117Z,16.00
2018-12-29T10:01:15.071Z,16.00
2018-12-29T10:02:17.016Z,15.99
2018-12-29T10:03:18.968Z,15.99
2018-12-29T10:04:20.974Z,16.00
2018-12-29T10:05:22.954Z,15.98
2018-12-29T10:06:24.882Z,16.00
2018-12-29T10:07:26.848Z,15.99
2018-12-29T10:08:28.877Z,15.99
2018-12-29T10:09:30.941Z,15.98
2018-12-29T10:10:32.902Z,15.99
2018-12-29T10:11:35.365Z,15.98
2018-12-29T10:12:37.508Z,15.97
2018-12-29T10:13:39.521Z,15.98
2018-12-29T10:14:41.530Z,15.97
2018-12-29T10:15:43.506Z,15.98
2018-12-29T10:16:45.438Z,15.97
2018-12-29T10:17:47.400Z,15.97
2018-12-29T10:18:49.343Z,15.96
2018-12-29T10:19:51.374Z,15.97
2018-12-29T10:20:53.426Z,15.98
2018-12-29T10:21:55.391Z,15.96
2018-12-29T10:22:57.415Z,15.97
2018-12-29T10:23:59.442Z,15.96
2018-12-29T10:25:01.554Z,15.96
2018-12-29T10:26:03.587Z,15.96
2018-12-29T10:27:05.526Z,15.97
2018-12-29T10:28:07.480Z,15.97
2018-12-29T10:29:09.426Z,15.97
2018-12-29T10:30:11.438Z,15.96
2018-12-29T10:31:13.437Z,15.96
2018-12-29T10:32:15.516Z,15.97
2018-12-29T10:33:17.571Z,15.97
2018-12-29T10:34:19.589Z,15.97
2018-12-29T10:35:21.595Z,15.97
2018-12-29T10:36:23.671Z,15.98
2018-12-29T10:37:25.623Z,15.97
2018-12-29T10:38:27.650Z,15.96
2018-12-29T10:39:29.583Z,15.96
2018-12-29T10:40:34.385Z,15.96
2018-12-29T10:41:36.356Z,15.95
2018-12-29T10:42:38.370Z,15.96
2018-12-29T10:43:40.387Z,15.95
2018-12-29T10:44:42.338Z,15.95
2018-12-29T10:45:44.293Z,15.96
2018-12-29T10:46:46.338Z,15.96
2018-12-29T10:47:48.320Z,15.95
2018-12-29T10:48:50.321Z,15.95
2018-12-29T10:49:52.349Z,15.94
2018-12-29T10:50:54.313Z,15.95
2018-12-29T10:51:56.354Z,15.95
2018-12-29T10:52:58.386Z,15.95
2018-12-29T10:54:01.284Z,15.94
2018-12-29T10:55:03.520Z,15.94
2018-12-29T10:56:05.573Z,15.95
2018-12-29T10:57:07.638Z,15.94
2018-12-29T10:58:09.683Z,15.95
2018-12-29T10:59:11.723Z,15.94
2018-12-29T11:00:13.667Z,15.94
2018-12-29T11:01:15.677Z,15.93
2018-12-29T11:02:17.689Z,15.93
2018-12-29T11:03:19.647Z,15.94
2018-12-29T11:04:22.006Z,15.93
2018-12-29T11:05:24.091Z,15.94
2018-12-29T11:06:26.030Z,15.93
2018-12-29T11:07:28.036Z,15.95
2018-12-29T11:08:30.017Z,15.96
2018-12-29T11:09:31.964Z,15.95
2018-12-29T11:10:33.969Z,15.95
2018-12-29T11:11:35.985Z,15.96
2018-12-29T11:12:38.027Z,15.96
2018-12-29T11:13:40.031Z,15.95
2018-12-29T11:14:41.995Z,15.95
2018-12-29T11:15:43.935Z,15.95
2018-12-29T11:16:45.903Z,15.95
2018-12-29T11:17:47.882Z,15.94
2018-12-29T11:18:49.959Z,15.95
2018-12-29T11:19:52.015Z,15.95
2018-12-29T11:20:54.036Z,15.94
2018-12-29T11:21:55.981Z,15.94
2018-12-29T11:22:57.952Z,15.93
2018-12-29T11:23:59.969Z,15.92
2018-12-29T11:25:01.903Z,15.93
2018-12-29T11:26:03.839Z,15.94
2018-12-29T11:27:05.793Z,15.94
2018-12-29T11:28:07.845Z,15.94
2018-12-29T11:29:09.781Z,15.93
2018-12-29T11:30:11.730Z,15.93
2018-12-29T11:31:13.755Z,15.93
2018-12-29T11:32:15.708Z,15.93
2018-12-29T11:33:17.720Z,15.92
2018-12-29T11:34:19.685Z,15.93
2018-12-29T11:35:28.553Z,15.92
2018-12-29T11:36:25.302Z,15.93
2018-12-29T11:37:27.330Z,15.93
2018-12-29T11:38:29.365Z,15.93
2018-12-29T11:39:31.383Z,15.93
2018-12-29T11:40:33.335Z,15.92
2018-12-29T11:41:35.276Z,15.93
2018-12-29T11:42:37.231Z,15.93
2018-12-29T11:43:39.221Z,15.93
2018-12-29T11:44:41.242Z,15.93
2018-12-29T11:45:43.199Z,15.92
2018-12-29T11:46:45.138Z,15.92
2018-12-29T11:47:50.014Z,15.92
2018-12-29T11:48:50.782Z,15.92
2018-12-29T11:49:53.168Z,15.93
2018-12-29T11:50:56.687Z,15.93
2018-12-29T11:51:58.806Z,15.92
2018-12-29T11:53:00.826Z,15.93
2018-12-29T11:54:02.910Z,15.93
2018-12-29T11:55:04.922Z,15.93
2018-12-29T11:56:06.939Z,15.92
2018-12-29T11:57:08.964Z,15.92
2018-12-29T11:58:11.014Z,15.93
2018-12-29T11:59:13.057Z,15.92
2018-12-29T12:00:15.159Z,15.91
2018-12-29T12:01:17.315Z,15.91
2018-12-29T12:02:30.466Z,15.91
2018-12-29T12:03:23.014Z,15.90
2018-12-29T12:04:25.391Z,15.92
2018-12-29T12:05:27.394Z,15.91
2018-12-29T12:06:29.336Z,15.92
2018-12-29T12:07:31.358Z,15.92
2018-12-29T12:08:33.359Z,15.92
2018-12-29T12:09:35.357Z,15.91
2018-12-29T12:10:37.376Z,15.92
2018-12-29T12:11:39.409Z,15.92
2018-12-29T12:12:41.434Z,15.91
2018-12-29T12:13:43.454Z,15.91
2018-12-29T12:14:48.004Z,15.91
2018-12-29T12:15:52.298Z,15.91
2018-12-29T12:16:54.318Z,15.91
2018-12-29T12:17:57.503Z,15.91
2018-12-29T12:18:59.775Z,15.91
2018-12-29T12:20:04.776Z,15.90
2018-12-29T12:21:06.730Z,15.90
2018-12-29T12:22:08.758Z,15.91
2018-12-29T12:23:10.774Z,15.89
2018-12-29T12:24:12.792Z,15.89
2018-12-29T12:25:14.831Z,15.89
2018-12-29T12:26:17.250Z,15.89
2018-12-29T12:27:19.278Z,15.89
2018-12-29T12:28:21.503Z,15.89
2018-12-29T12:29:23.591Z,15.90
2018-12-29T12:30:25.680Z,15.88
2018-12-29T12:31:27.776Z,15.87
2018-12-29T12:32:29.823Z,15.86
2018-12-29T12:33:32.139Z,15.87
2018-12-29T12:34:34.158Z,15.87
2018-12-29T12:35:36.448Z,15.87
2018-12-29T12:36:38.867Z,15.90
2018-12-29T12:37:40.910Z,15.91
2018-12-29T12:38:42.965Z,15.92
2018-12-29T12:39:44.985Z,15.92
2018-12-29T12:40:47.218Z,15.95
2018-12-29T12:41:49.535Z,15.97
2018-12-29T12:42:51.651Z,15.99
2018-12-29T12:43:53.674Z,16.02
2018-12-29T12:44:56.885Z,16.05
2018-12-29T12:45:58.932Z,16.09
2018-12-29T12:47:00.994Z,16.12
2018-12-29T12:48:05.176Z,16.15
2018-12-29T12:49:06.684Z,16.18
2018-12-29T12:50:08.734Z,16.21
2018-12-29T12:51:11.197Z,16.24
2018-12-29T12:52:13.250Z,16.27
2018-12-29T12:53:15.285Z,16.29
2018-12-29T12:54:17.637Z,16.32
2018-12-29T12:55:19.665Z,16.32
2018-12-29T12:56:21.717Z,16.34
2018-12-29T12:57:24.064Z,16.35
2018-12-29T12:58:26.477Z,16.36
2018-12-29T12:59:28.810Z,16.36
2018-12-29T13:00:30.879Z,16.37
2018-12-29T13:01:33.306Z,16.37
2018-12-29T13:02:35.311Z,16.37
2018-12-29T13:03:37.352Z,16.37
2018-12-29T13:04:39.410Z,16.36
2018-12-29T13:05:41.438Z,16.35
2018-12-29T13:06:43.873Z,16.35
2018-12-29T13:07:48.311Z,16.33
2018-12-29T13:08:50.528Z,16.32
2018-12-29T13:09:52.547Z,16.31
2018-12-29T13:10:54.586Z,16.29
2018-12-29T13:11:56.668Z,16.29
2018-12-29T13:12:58.717Z,16.29
2018-12-29T13:14:00.736Z,16.27
2018-12-29T13:15:02.760Z,16.26
2018-12-29T13:16:07.921Z,16.24
2018-12-29T13:17:09.982Z,16.24
2018-12-29T13:18:13.134Z,16.23
2018-12-29T13:19:15.447Z,16.22
2018-12-29T13:20:17.500Z,16.21